Time;durP1;ratioP1;P1;durP2;ratioP2;P2;SDS_P1;SDS_P2;PMS_P1;PMS_P2;Temp;Humidity;BMP_temperature;BMP_pressure;BME280_temperature;BME280_humidity;BME280_pressure;Samples;Min_cycle;Max_cycle;Signal;HPM_P1;HPM_P2
2023/04/17 00:00:07;;;;;;;8.17;7.03;;;11.00;99.90;;;;;;5135364;27;20207;-58
2023/04/17 00:02:38;;;;;;;7.87;7.07;;;11.00;99.90;;;;;;5135299;27;20250;-58
2023/04/17 00:05:07;;;;;;;7.10;6.40;;;11.10;99.90;;;;;;5135903;27;20211;-57
2023/04/17 00:07:34;;;;;;;9.03;7.33;;;11.10;99.90;;;;;;5135775;27;20689;-57
2023/04/17 00:10:00;;;;;;;7.60;6.80;;;11.20;99.90;;;;;;5137469;27;20577;-57
2023/04/17 00:12:28;;;;;;;8.10;7.00;;;11.30;99.90;;;;;;5136885;27;20686;-57
2023/04/17 00:14:55;;;;;;;8.67;7.53;;;11.30;99.90;;;;;;5136839;27;20207;-58
2023/04/17 00:17:22;;;;;;;8.27;7.13;;;11.30;99.90;;;;;;5136019;27;20195;-57
2023/04/17 00:19:49;;;;;;;8.37;7.47;;;11.30;99.90;;;;;;5136353;27;20203;-57
2023/04/17 00:22:16;;;;;;;9.17;7.33;;;11.40;99.90;;;;;;5135916;27;20223;-57
2023/04/17 00:24:43;;;;;;;9.90;8.17;;;11.30;99.90;;;;;;5135875;27;20221;-57
2023/04/17 00:27:09;;;;;;;10.70;7.27;;;11.30;99.90;;;;;;5136000;27;20210;-57
2023/04/17 00:29:37;;;;;;;8.90;7.67;;;11.20;99.90;;;;;;5135498;27;20207;-57
2023/04/17 00:32:05;;;;;;;9.57;7.33;;;11.30;99.90;;;;;;5136100;27;20234;-57
2023/04/17 00:34:31;;;;;;;8.33;7.30;;;11.30;99.90;;;;;;5135242;27;20202;-58
2023/04/17 00:36:59;;;;;;;9.63;7.90;;;11.30;99.90;;;;;;5135718;27;20203;-57
2023/04/17 00:39:26;;;;;;;8.17;7.37;;;11.30;99.90;;;;;;5135133;27;20548;-57
2023/04/17 00:41:52;;;;;;;10.40;8.10;;;11.40;99.90;;;;;;5135310;27;20237;-57
2023/04/17 00:44:19;;;;;;;9.13;7.70;;;11.60;99.90;;;;;;5135177;27;20690;-57
2023/04/17 00:46:47;;;;;;;9.47;8.47;;;11.70;99.90;;;;;;5135506;27;20203;-56
2023/04/17 00:49:14;;;;;;;8.43;7.53;;;11.70;99.90;;;;;;5135825;27;20565;-57
2023/04/17 00:51:41;;;;;;;8.83;7.80;;;11.60;99.90;;;;;;5135508;27;20305;-57
2023/04/17 00:54:09;;;;;;;9.57;8.30;;;11.50;99.90;;;;;;5135813;27;20217;-57
2023/04/17 00:56:36;;;;;;;8.50;7.67;;;11.40;99.90;;;;;;5135795;27;20203;-57
2023/04/17 00:59:05;;;;;;;11.43;8.10;;;11.30;99.90;;;;;;5135537;27;20214;-57
2023/04/17 01:01:32;;;;;;;8.93;7.83;;;11.20;99.90;;;;;;5135495;27;20234;-57
2023/04/17 01:04:01;;;;;;;8.93;8.00;;;11.20;99.90;;;;;;5134598;27;20206;-57
2023/04/17 01:06:28;;;;;;;9.63;8.30;;;11.10;99.90;;;;;;5135406;27;20207;-57
2023/04/17 01:08:55;;;;;;;9.20;8.20;;;10.90;99.90;;;;;;5134960;27;20207;-57
2023/04/17 01:11:22;;;;;;;9.27;7.90;;;10.90;99.90;;;;;;5134998;27;20219;-57
2023/04/17 01:13:50;;;;;;;10.60;8.90;;;10.80;99.90;;;;;;5135169;27;20199;-57
2023/04/17 01:16:17;;;;;;;9.73;8.67;;;10.80;99.90;;;;;;5135217;27;20199;-57
2023/04/17 01:18:45;;;;;;;9.87;8.40;;;10.80;99.90;;;;;;5135407;27;20306;-57
2023/04/17 01:21:13;;;;;;;9.63;8.37;;;10.80;99.90;;;;;;5134832;27;20230;-57
2023/04/17 01:23:45;;;;;;;10.13;8.27;;;10.80;99.90;;;;;;5134955;27;20221;-57
2023/04/17 01:26:17;;;;;;;10.80;8.97;;;10.80;99.90;;;;;;5134890;27;20203;-57
2023/04/17 01:28:44;;;;;;;11.43;8.67;;;10.80;99.90;;;;;;5135143;27;20675;-58
2023/04/17 01:31:15;;;;;;;10.73;8.87;;;10.90;99.90;;;;;;5135144;27;20233;-57
2023/04/17 01:33:42;;;;;;;10.63;9.10;;;10.90;99.90;;;;;;5138230;27;20228;-57
2023/04/17 01:36:09;;;;;;;10.83;9.17;;;11.00;99.90;;;;;;5138492;27;20217;-58
2023/04/17 01:38:36;;;;;;;11.43;9.63;;;11.00;99.90;;;;;;5138287;27;20214;-57
2023/04/17 01:41:08;;;;;;;9.70;8.30;;;11.10;99.90;;;;;;5138314;27;20223;-58
2023/04/17 01:43:37;;;;;;;9.63;8.63;;;11.20;99.90;;;;;;5138122;27;20606;-58
2023/04/17 01:46:04;;;;;;;10.60;9.37;;;11.20;99.90;;;;;;5137869;27;20226;-58
2023/04/17 01:48:31;;;;;;;10.50;8.80;;;11.30;99.90;;;;;;5138875;27;20621;-58
2023/04/17 01:50:58;;;;;;;10.10;8.67;;;11.30;99.90;;;;;;5138454;27;20222;-58
2023/04/17 01:53:26;;;;;;;10.03;8.93;;;11.30;99.90;;;;;;5138979;27;20211;-59
2023/04/17 01:55:53;;;;;;;11.47;9.07;;;11.30;99.90;;;;;;5138470;27;20213;-58
2023/04/17 01:58:20;;;;;;;11.33;9.40;;;11.30;99.90;;;;;;5138394;27;20203;-57
2023/04/17 02:00:48;;;;;;;12.57;9.77;;;11.30;99.90;;;;;;5138917;27;20225;-57
2023/04/17 02:03:16;;;;;;;10.10;9.07;;;11.30;99.90;;;;;;5137938;27;20223;-57
2023/04/17 02:05:45;;;;;;;10.17;9.17;;;11.30;99.90;;;;;;5138503;27;20203;-57
2023/04/17 02:08:12;;;;;;;10.57;9.37;;;11.30;99.90;;;;;;5138193;27;20213;-57
2023/04/17 02:10:39;;;;;;;13.07;9.73;;;11.30;99.90;;;;;;5138314;27;20302;-57
2023/04/17 02:13:06;;;;;;;11.17;8.63;;;11.40;99.90;;;;;;5138573;27;20195;-58
2023/04/17 02:15:33;;;;;;;11.30;9.60;;;11.30;99.90;;;;;;5138778;27;20209;-57
2023/04/17 02:18:02;;;;;;;11.17;9.40;;;11.40;99.90;;;;;;5138802;27;20207;-58
2023/04/17 02:20:29;;;;;;;12.47;9.63;;;11.40;99.90;;;;;;5138572;27;20322;-57
2023/04/17 02:22:56;;;;;;;11.93;9.30;;;11.40;99.90;;;;;;5138843;27;20253;-58
2023/04/17 02:25:22;;;;;;;11.53;9.00;;;11.40;99.90;;;;;;5138894;27;20565;-58
2023/04/17 02:27:49;;;;;;;10.83;9.00;;;11.50;99.90;;;;;;5136775;27;20210;-58
2023/04/17 02:30:16;;;;;;;9.70;8.70;;;11.50;99.90;;;;;;5137229;27;20738;-58
2023/04/17 02:32:43;;;;;;;10.63;9.53;;;11.50;99.90;;;;;;5138047;27;20218;-58
2023/04/17 02:35:11;;;;;;;11.73;9.40;;;11.50;99.90;;;;;;5137552;27;20205;-58
2023/04/17 02:37:39;;;;;;;11.90;10.00;;;11.50;99.90;;;;;;5137453;27;20295;-58
2023/04/17 02:40:08;;;;;;;12.87;9.43;;;11.60;99.90;;;;;;5137106;27;20210;-58
2023/04/17 02:42:35;;;;;;;12.47;9.87;;;11.60;99.90;;;;;;5137142;27;20262;-58
2023/04/17 02:45:02;;;;;;;12.33;9.27;;;11.60;99.90;;;;;;5135573;27;20282;-58
2023/04/17 02:47:29;;;;;;;12.67;8.97;;;11.60;99.90;;;;;;5137081;27;20207;-58
2023/04/17 02:49:58;;;;;;;11.53;9.27;;;11.60;99.90;;;;;;5137103;27;20234;-59
2023/04/17 02:52:28;;;;;;;10.10;8.97;;;11.60;99.90;;;;;;5137000;27;20273;-58
2023/04/17 02:54:55;;;;;;;11.30;9.83;;;11.70;99.90;;;;;;5136861;27;20202;-57
2023/04/17 02:57:22;;;;;;;10.03;9.00;;;11.60;99.90;;;;;;5136764;27;20203;-57
2023/04/17 02:59:49;;;;;;;11.67;10.00;;;11.70;99.90;;;;;;5136862;27;20206;-59
2023/04/17 03:02:20;;;;;;;11.13;9.83;;;11.70;99.90;;;;;;5136687;27;20734;-57
2023/04/17 03:04:47;;;;;;;11.27;9.90;;;11.60;99.90;;;;;;5136480;27;20203;-57
2023/04/17 03:07:17;;;;;;;11.77;9.10;;;11.60;99.90;;;;;;5136594;27;20682;-57
2023/04/17 03:09:46;;;;;;;12.60;9.43;;;11.60;99.90;;;;;;5136470;27;20210;-58
2023/04/17 03:12:13;;;;;;;10.93;9.73;;;11.60;99.90;;;;;;5136301;27;20219;-60
2023/04/17 03:14:40;;;;;;;13.13;11.43;;;11.60;99.90;;;;;;5137096;27;20213;-58
2023/04/17 03:17:07;;;;;;;12.47;10.53;;;11.60;99.90;;;;;;5136658;27;20202;-58
2023/04/17 03:19:33;;;;;;;10.50;9.03;;;11.60;99.90;;;;;;5136067;27;20666;-58
2023/04/17 03:22:01;;;;;;;11.07;9.40;;;11.70;99.90;;;;;;5136470;27;20222;-58
2023/04/17 03:24:28;;;;;;;13.13;9.87;;;11.70;99.90;;;;;;5136059;27;20211;-57
2023/04/17 03:26:57;;;;;;;11.77;9.70;;;11.60;99.90;;;;;;5136574;27;20297;-57
2023/04/17 03:29:24;;;;;;;10.93;9.33;;;11.70;99.90;;;;;;5136151;27;20202;-58
2023/04/17 03:31:50;;;;;;;11.60;9.40;;;11.70;99.90;;;;;;5135734;27;20235;-58
2023/04/17 03:34:17;;;;;;;11.57;9.63;;;11.70;99.90;;;;;;5136078;27;20207;-58
2023/04/17 03:36:45;;;;;;;11.20;9.87;;;11.70;99.90;;;;;;5136346;27;20210;-59
2023/04/17 03:39:12;;;;;;;12.17;10.10;;;11.70;99.90;;;;;;5135964;27;20213;-57
2023/04/17 03:41:39;;;;;;;12.07;10.37;;;11.70;99.90;;;;;;5136070;27;20219;-57
2023/04/17 03:44:08;;;;;;;12.37;10.73;;;11.70;99.90;;;;;;5136244;27;20276;-57
2023/04/17 03:46:35;;;;;;;10.67;9.53;;;11.70;99.90;;;;;;5136619;27;20214;-57
2023/04/17 03:49:02;;;;;;;12.80;9.80;;;11.70;99.90;;;;;;5136501;27;20211;-58
2023/04/17 03:51:29;;;;;;;12.93;10.17;;;11.70;99.90;;;;;;5136241;27;20246;-59
2023/04/17 03:53:55;;;;;;;12.07;9.73;;;11.80;99.90;;;;;;5135826;27;20227;-58
2023/04/17 03:56:22;;;;;;;10.87;9.77;;;11.80;99.90;;;;;;5136130;27;20208;-58
2023/04/17 03:58:49;;;;;;;13.67;10.30;;;11.80;99.90;;;;;;5135722;27;20213;-58
2023/04/17 04:01:17;;;;;;;11.47;10.07;;;11.80;99.90;;;;;;5135676;27;20256;-58
2023/04/17 04:03:44;;;;;;;11.60;10.03;;;11.80;99.90;;;;;;5136357;27;20286;-58
2023/04/17 04:06:11;;;;;;;11.07;9.93;;;11.80;99.90;;;;;;5135748;27;20203;-57
2023/04/17 04:08:39;;;;;;;12.30;10.33;;;11.80;99.90;;;;;;5136521;27;20198;-57
2023/04/17 04:11:05;;;;;;;11.37;10.03;;;11.80;99.90;;;;;;5136000;27;20226;-58
2023/04/17 04:13:32;;;;;;;11.90;10.17;;;11.80;99.90;;;;;;5135773;27;20256;-58
2023/04/17 04:15:59;;;;;;;10.17;9.03;;;11.80;99.90;;;;;;5135936;27;20210;-58
2023/04/17 04:18:27;;;;;;;12.33;10.93;;;11.70;99.90;;;;;;5136996;27;20211;-58
2023/04/17 04:20:54;;;;;;;14.93;11.93;;;11.70;99.90;;;;;;5136834;27;20225;-58
2023/04/17 04:23:23;;;;;;;11.83;10.20;;;11.60;99.90;;;;;;5136742;27;20249;-58
2023/04/17 04:25:50;;;;;;;10.93;9.57;;;11.50;99.90;;;;;;5137522;27;20206;-58
2023/04/17 04:28:17;;;;;;;11.83;10.27;;;11.30;99.90;;;;;;5137301;27;20203;-58
2023/04/17 04:30:49;;;;;;;11.83;10.30;;;11.10;99.90;;;;;;5137007;27;20291;-58
2023/04/17 04:33:16;;;;;;;12.00;10.23;;;11.10;99.90;;;;;;5136267;27;20218;-57
2023/04/17 04:35:46;;;;;;;10.87;9.60;;;11.10;99.90;;;;;;5136843;27;20301;-57
2023/04/17 04:38:14;;;;;;;11.20;9.60;;;11.10;99.90;;;;;;5135952;27;20203;-57
2023/04/17 04:40:42;;;;;;;11.97;10.03;;;10.90;99.90;;;;;;5135901;27;20223;-57
2023/04/17 04:43:09;;;;;;;12.13;10.47;;;10.80;99.90;;;;;;5136124;27;20230;-57
2023/04/17 04:45:36;;;;;;;10.40;8.97;;;10.70;99.90;;;;;;5135977;27;20305;-57
2023/04/17 04:48:03;;;;;;;11.03;9.43;;;10.70;99.90;;;;;;5136451;27;20679;-57
2023/04/17 04:50:30;;;;;;;12.73;10.77;;;10.70;99.90;;;;;;5136520;27;20585;-57
2023/04/17 04:52:58;;;;;;;11.50;9.57;;;10.60;99.90;;;;;;5136460;27;20205;-57
2023/04/17 04:55:25;;;;;;;13.03;10.73;;;10.70;99.90;;;;;;5136527;27;20210;-57
2023/04/17 04:57:53;;;;;;;13.40;10.93;;;10.70;99.90;;;;;;5137043;27;20203;-58
2023/04/17 05:00:20;;;;;;;11.43;9.43;;;10.80;99.90;;;;;;5136797;27;20279;-57
2023/04/17 05:02:47;;;;;;;21.23;18.27;;;10.80;99.90;;;;;;5137459;27;20219;-57
2023/04/17 05:05:14;;;;;;;15.40;11.73;;;10.90;99.90;;;;;;5137298;27;20242;-57
2023/04/17 05:07:40;;;;;;;13.40;10.10;;;11.00;99.90;;;;;;5139461;27;20203;-58
2023/04/17 05:10:09;;;;;;;11.37;9.43;;;11.10;99.90;;;;;;5141266;27;20214;-59
2023/04/17 05:12:36;;;;;;;12.03;9.37;;;11.10;99.90;;;;;;5141130;27;20729;-58
2023/04/17 05:15:03;;;;;;;12.13;9.53;;;11.00;99.90;;;;;;5140506;27;20207;-58
2023/04/17 05:17:30;;;;;;;11.70;9.27;;;11.00;99.90;;;;;;5140721;27;20199;-58
2023/04/17 05:19:57;;;;;;;10.20;9.13;;;10.90;99.90;;;;;;5139790;27;20210;-57
2023/04/17 05:22:26;;;;;;;13.57;9.27;;;10.90;99.90;;;;;;5139623;27;20227;-57
2023/04/17 05:24:53;;;;;;;11.80;9.07;;;10.80;99.90;;;;;;5140073;27;20206;-57
2023/04/17 05:27:21;;;;;;;11.63;9.60;;;10.70;99.90;;;;;;5140246;27;20214;-57
2023/04/17 05:29:47;;;;;;;11.20;9.57;;;10.60;99.90;;;;;;5140345;27;20203;-57
2023/04/17 05:32:14;;;;;;;11.13;9.63;;;10.60;99.90;;;;;;5140588;27;20237;-60
2023/04/17 05:34:41;;;;;;;11.53;9.57;;;10.60;99.90;;;;;;5141108;27;20263;-59
2023/04/17 05:37:07;;;;;;;11.83;9.07;;;10.60;99.90;;;;;;5141505;27;20594;-57
2023/04/17 05:39:34;;;;;;;15.27;11.50;;;10.70;99.90;;;;;;5141517;27;20556;-57
2023/04/17 05:42:01;;;;;;;13.40;10.57;;;10.80;99.90;;;;;;5139776;27;20223;-57
2023/04/17 05:44:29;;;;;;;14.70;9.70;;;10.90;99.90;;;;;;5140036;27;20222;-57
2023/04/17 05:46:58;;;;;;;14.87;11.67;;;11.10;99.90;;;;;;5140254;27;20641;-57
2023/04/17 05:49:25;;;;;;;12.53;9.90;;;11.10;99.90;;;;;;5140459;27;20210;-57
2023/04/17 05:51:52;;;;;;;13.23;11.07;;;11.20;99.90;;;;;;5139564;27;20226;-56
2023/04/17 05:54:19;;;;;;;12.40;10.43;;;11.40;99.90;;;;;;5139546;27;20575;-57
2023/04/17 05:56:46;;;;;;;13.70;12.20;;;11.60;99.90;;;;;;5139002;27;20199;-56
2023/04/17 05:59:12;;;;;;;12.13;9.87;;;11.70;99.90;;;;;;5138392;27;20198;-57
2023/04/17 06:01:42;;;;;;;12.00;9.63;;;11.80;99.90;;;;;;5138030;27;20271;-57
2023/04/17 06:04:09;;;;;;;14.10;9.97;;;11.70;99.90;;;;;;5137508;27;20226;-57
2023/04/17 06:06:36;;;;;;;11.80;9.63;;;11.60;99.90;;;;;;5138163;27;20210;-57
2023/04/17 06:09:04;;;;;;;11.20;9.23;;;11.50;99.90;;;;;;5138118;27;20229;-57
2023/04/17 06:11:31;;;;;;;11.23;8.97;;;11.40;99.90;;;;;;5137834;27;20231;-57
2023/04/17 06:13:58;;;;;;;11.27;9.10;;;11.40;99.90;;;;;;5139171;27;20203;-57
2023/04/17 06:16:25;;;;;;;9.23;7.60;;;11.40;99.90;;;;;;5138429;27;20571;-57
2023/04/17 06:18:53;;;;;;;10.13;8.47;;;11.40;99.90;;;;;;5138451;27;20199;-57
2023/04/17 06:21:20;;;;;;;11.43;8.57;;;11.40;99.90;;;;;;5137755;27;20229;-57
2023/04/17 06:23:47;;;;;;;11.10;7.63;;;11.30;99.90;;;;;;5137620;27;20226;-57
2023/04/17 06:26:13;;;;;;;10.63;8.07;;;11.30;99.90;;;;;;5138156;27;20203;-57
2023/04/17 06:28:40;;;;;;;10.07;8.80;;;11.20;99.90;;;;;;5137981;27;20199;-57
2023/04/17 06:31:07;;;;;;;8.97;7.83;;;11.20;99.90;;;;;;5137979;27;20242;-57
2023/04/17 06:33:34;;;;;;;9.50;8.10;;;11.20;99.90;;;;;;5137978;27;20203;-58
2023/04/17 06:36:02;;;;;;;10.13;8.00;;;11.10;99.90;;;;;;5137705;27;20670;-58
2023/04/17 06:38:29;;;;;;;8.87;7.43;;;11.20;99.90;;;;;;5138260;27;20191;-57
2023/04/17 06:40:56;;;;;;;9.80;7.53;;;11.40;99.90;;;;;;5138845;27;20254;-57
2023/04/17 06:43:22;;;;;;;10.13;7.63;;;11.50;99.90;;;;;;5136151;27;20226;-60
2023/04/17 06:45:49;;;;;;;9.93;7.70;;;11.50;99.90;;;;;;5136184;27;20203;-56
2023/04/17 06:48:16;;;;;;;9.00;7.43;;;11.40;99.90;;;;;;5135602;27;20209;-57
2023/04/17 06:50:43;;;;;;;9.30;7.90;;;11.30;99.90;;;;;;5135307;27;20219;-57
2023/04/17 06:53:11;;;;;;;8.57;7.03;;;11.40;99.90;;;;;;5135205;27;20213;-57
2023/04/17 06:55:37;;;;;;;9.63;7.87;;;11.40;99.90;;;;;;5134944;27;20206;-57
2023/04/17 06:58:05;;;;;;;8.53;7.60;;;11.60;99.90;;;;;;5135115;27;20206;-57
2023/04/17 07:00:32;;;;;;;9.97;7.07;;;11.70;99.90;;;;;;5134660;27;20271;-57
2023/04/17 07:02:59;;;;;;;8.50;7.23;;;11.80;99.90;;;;;;5135060;27;20222;-56
2023/04/17 07:05:26;;;;;;;7.83;7.03;;;11.90;99.90;;;;;;5134517;27;20667;-56
2023/04/17 07:07:54;;;;;;;11.00;7.17;;;12.00;99.90;;;;;;5135051;27;20263;-57
2023/04/17 07:10:22;;;;;;;8.73;7.20;;;12.00;99.90;;;;;;5134575;27;20682;-57
2023/04/17 07:12:49;;;;;;;8.73;7.53;;;12.00;99.90;;;;;;5134679;27;20675;-57
2023/04/17 07:15:16;;;;;;;8.60;7.07;;;12.00;99.90;;;;;;5134478;27;20554;-57
2023/04/17 07:17:42;;;;;;;8.20;6.40;;;12.00;99.90;;;;;;5134662;27;20199;-56
2023/04/17 07:20:10;;;;;;;10.60;7.60;;;12.10;99.90;;;;;;5134336;27;20206;-57
2023/04/17 07:22:37;;;;;;;8.63;6.70;;;12.20;99.90;;;;;;5134690;27;20297;-57
2023/04/17 07:25:04;;;;;;;8.87;6.27;;;12.30;99.90;;;;;;5134188;27;20203;-57
2023/04/17 07:27:33;;;;;;;9.27;6.70;;;12.40;99.90;;;;;;5134128;27;20727;-57
2023/04/17 07:30:00;;;;;;;7.17;6.30;;;12.40;99.90;;;;;;5133785;27;20203;-56
2023/04/17 07:32:27;;;;;;;8.20;6.13;;;12.50;99.90;;;;;;5134804;27;20199;-57
2023/04/17 07:34:54;;;;;;;6.67;5.80;;;12.50;99.90;;;;;;5134048;27;20210;-56
2023/04/17 07:37:20;;;;;;;6.43;5.43;;;12.50;99.90;;;;;;5134528;27;20210;-56
2023/04/17 07:39:49;;;;;;;7.20;5.90;;;12.40;99.90;;;;;;5134349;27;20207;-57
2023/04/17 07:42:16;;;;;;;6.70;5.53;;;12.40;99.90;;;;;;5134356;27;20313;-57
2023/04/17 07:44:44;;;;;;;6.80;5.57;;;12.40;99.90;;;;;;5133899;27;20223;-56
2023/04/17 07:47:10;;;;;;;6.33;5.40;;;12.40;99.90;;;;;;5133844;27;20237;-56
2023/04/17 07:49:39;;;;;;;6.47;5.17;;;12.40;99.90;;;;;;5133933;27;20674;-56
2023/04/17 07:52:06;;;;;;;8.87;5.33;;;12.40;99.90;;;;;;5133902;27;20615;-57
2023/04/17 07:54:32;;;;;;;6.03;5.20;;;12.40;99.90;;;;;;5133625;27;20206;-57
2023/04/17 07:57:02;;;;;;;6.10;5.10;;;12.50;99.90;;;;;;5133943;27;20202;-57
2023/04/17 07:59:29;;;;;;;5.57;4.80;;;12.60;99.90;;;;;;5134188;27;20293;-57
2023/04/17 08:01:57;;;;;;;7.20;5.60;;;12.70;99.90;;;;;;5134220;27;20227;-57
2023/04/17 08:04:24;;;;;;;5.37;4.73;;;12.70;99.90;;;;;;5133625;27;20230;-57
2023/04/17 08:06:51;;;;;;;6.43;4.60;;;12.80;99.90;;;;;;5133822;27;20305;-56
2023/04/17 08:09:18;;;;;;;6.03;4.60;;;12.90;99.90;;;;;;5133661;27;20261;-57
2023/04/17 08:11:45;;;;;;;5.33;4.30;;;12.90;99.90;;;;;;5133572;27;20737;-56
2023/04/17 08:14:12;;;;;;;4.90;4.03;;;12.80;99.90;;;;;;5133492;27;20203;-57
2023/04/17 08:16:39;;;;;;;5.30;3.73;;;12.70;99.90;;;;;;5133241;27;20211;-57
2023/04/17 08:19:07;;;;;;;4.87;4.17;;;12.60;99.90;;;;;;5133234;27;20211;-56
2023/04/17 08:21:33;;;;;;;4.93;3.97;;;12.60;99.90;;;;;;5133128;27;20223;-56
2023/04/17 08:24:00;;;;;;;4.57;4.10;;;12.50;99.90;;;;;;5132913;27;20226;-58
2023/04/17 08:26:27;;;;;;;4.80;4.03;;;12.50;99.90;;;;;;5133349;27;20205;-57
2023/04/17 08:28:54;;;;;;;5.07;4.57;;;12.60;99.90;;;;;;5133341;27;20203;-57
2023/04/17 08:31:21;;;;;;;4.50;4.10;;;12.80;99.90;;;;;;5133023;27;20256;-57
2023/04/17 08:33:48;;;;;;;5.90;4.80;;;12.80;99.90;;;;;;5133211;27;20210;-57
2023/04/17 08:36:16;;;;;;;5.17;4.40;;;12.80;99.90;;;;;;5133041;27;20214;-57
2023/04/17 08:38:43;;;;;;;6.23;5.07;;;12.90;99.90;;;;;;5133202;27;20209;-57
2023/04/17 08:41:18;;;;;;;5.90;5.13;;;12.90;99.90;;;;;;5135459;27;20226;-60
2023/04/17 08:43:49;;;;;;;6.40;4.93;;;13.00;99.90;;;;;;5138684;27;20229;-63
2023/04/17 08:46:17;;;;;;;6.43;4.80;;;13.20;99.90;;;;;;5135473;27;20282;-58
2023/04/17 08:48:45;;;;;;;6.00;5.03;;;13.40;99.90;;;;;;5136477;27;20569;-59
2023/04/17 08:51:12;;;;;;;6.23;5.07;;;13.50;99.90;;;;;;5136225;27;20238;-59
2023/04/17 08:53:40;;;;;;;5.73;5.13;;;13.50;99.90;;;;;;5136280;27;20248;-57
2023/04/17 08:56:07;;;;;;;5.83;4.67;;;13.40;99.90;;;;;;5136372;27;20685;-58
2023/04/17 08:58:34;;;;;;;7.83;4.67;;;13.40;99.90;;;;;;5136194;27;20225;-59
2023/04/17 09:01:08;;;;;;;6.47;4.87;;;13.40;99.90;;;;;;5136320;27;20230;-59
2023/04/17 09:03:41;;;;;;;5.83;5.23;;;13.40;99.90;;;;;;5136227;27;20643;-58
2023/04/17 09:06:09;;;;;;;6.30;5.03;;;13.60;99.90;;;;;;5136654;27;20210;-59
2023/04/17 09:08:35;;;;;;;5.20;4.70;;;13.80;99.90;;;;;;5136328;27;20257;-58
2023/04/17 09:11:03;;;;;;;7.33;4.73;;;13.80;99.90;;;;;;5135858;27;20222;-58
2023/04/17 09:13:39;;;;;;;5.03;4.50;;;13.90;99.90;;;;;;5135779;27;20707;-58
2023/04/17 09:16:07;;;;;;;6.30;4.80;;;13.90;99.90;;;;;;5135699;27;20666;-59
2023/04/17 09:18:35;;;;;;;6.00;4.83;;;13.80;99.90;;;;;;5136306;27;20573;-59
2023/04/17 09:21:03;;;;;;;5.07;4.20;;;13.70;99.90;;;;;;5136358;27;20219;-59
2023/04/17 09:23:45;;;;;;;4.60;3.90;;;13.60;99.90;;;;;;5136084;27;20221;-59
2023/04/17 09:26:14;;;;;;;5.30;4.57;;;13.40;99.90;;;;;;5135996;27;20207;-59
2023/04/17 09:28:42;;;;;;;5.03;4.33;;;13.20;99.90;;;;;;5136711;27;20235;-59
2023/04/17 09:31:25;;;;;;;5.93;4.67;;;13.00;99.90;;;;;;5136636;27;20429;-59
2023/04/17 09:33:56;;;;;;;6.87;4.87;;;12.80;99.90;;;;;;5136169;27;20198;-59
2023/04/17 09:36:25;;;;;;;6.30;4.93;;;12.70;99.90;;;;;;5135899;27;20243;-58
2023/04/17 09:38:52;;;;;;;6.47;4.83;;;12.80;99.90;;;;;;5135205;27;20203;-56
2023/04/17 09:41:28;;;;;;;5.30;4.80;;;12.90;99.90;;;;;;5135234;27;20222;-57
2023/04/17 09:43:59;;;;;;;6.60;5.73;;;12.90;99.90;;;;;;5135076;27;20262;-57
2023/04/17 09:46:34;;;;;;;6.00;4.80;;;12.90;99.90;;;;;;5136114;27;20203;-60
2023/04/17 09:49:04;;;;;;;6.57;5.13;;;12.90;99.90;;;;;;5135567;27;20245;-58
2023/04/17 09:51:31;;;;;;;5.67;4.90;;;13.00;99.90;;;;;;5135800;27;20732;-59
2023/04/17 09:53:59;;;;;;;6.83;5.07;;;13.00;99.90;;;;;;5135195;27;20228;-60
2023/04/17 09:56:28;;;;;;;6.53;4.90;;;13.20;99.90;;;;;;5135668;27;20203;-58
2023/04/17 09:58:56;;;;;;;7.50;4.83;;;13.40;99.90;;;;;;5135138;27;20207;-58
2023/04/17 10:01:24;;;;;;;6.00;4.67;;;13.70;99.90;;;;;;5135037;27;20222;-57
2023/04/17 10:03:51;;;;;;;7.03;4.87;;;14.10;99.90;;;;;;5134871;27;20310;-58
2023/04/17 10:06:18;;;;;;;4.83;4.33;;;14.40;99.90;;;;;;5135299;27;20206;-58
2023/04/17 10:08:46;;;;;;;5.47;4.80;;;14.80;99.90;;;;;;5135433;27;20230;-58
2023/04/17 10:11:13;;;;;;;6.90;4.50;;;15.20;99.90;;;;;;5134956;27;20598;-59
2023/04/17 10:13:45;;;;;;;6.50;4.83;;;15.60;99.90;;;;;;5135154;27;20211;-59
2023/04/17 10:16:11;;;;;;;4.87;4.07;;;15.90;99.90;;;;;;5134767;27;20234;-59
2023/04/17 10:18:38;;;;;;;4.13;3.73;;;16.10;99.90;;;;;;5134814;27;20685;-59
2023/04/17 10:21:21;;;;;;;5.47;4.23;;;16.30;99.90;;;;;;5134296;27;20269;-59
2023/04/17 10:23:48;;;;;;;4.50;3.83;;;16.40;99.90;;;;;;5135109;27;20206;-59
2023/04/17 10:26:42;;;;;;;4.22;3.83;;;16.40;99.90;;;;;;5135054;27;20202;-59
2023/04/17 10:29:11;;;;;;;3.95;3.55;;;16.30;99.90;;;;;;5134750;27;20209;-59
2023/04/17 10:32:24;;;;;;;4.20;3.80;;;16.60;99.90;;;;;;5134331;27;20287;-59
2023/04/17 10:34:52;;;;;;;3.73;3.43;;;16.70;99.90;;;;;;5134655;27;20585;-59
2023/04/17 10:37:21;;;;;;;4.35;3.75;;;16.80;99.90;;;;;;5134783;27;20195;-59
2023/04/17 10:39:55;;;;;;;4.10;3.70;;;16.80;99.90;;;;;;5134620;27;20210;-59
2023/04/17 10:42:23;;;;;;;5.57;3.90;;;17.10;99.90;;;;;;5134508;27;20275;-60
2023/04/17 10:44:57;;;;;;;5.25;4.20;;;17.40;99.90;;;;;;5134455;27;20218;-59
2023/04/17 10:47:31;;;;;;;4.63;3.65;;;17.50;99.90;;;;;;5135282;27;20218;-59
2023/04/17 10:49:58;;;;;;;3.60;3.20;;;17.50;99.90;;;;;;5135379;27;20231;-57
2023/04/17 10:52:38;;;;;;;3.70;3.25;;;17.50;99.90;;;;;;5135321;27;20227;-59
2023/04/17 10:55:06;;;;;;;3.65;3.25;;;17.50;99.90;;;;;;5135265;27;20232;-59
2023/04/17 10:57:53;;;;;;;4.57;3.42;;;17.80;99.90;;;;;;5134992;27;20203;-57
2023/04/17 11:00:29;;;;;;;3.42;2.97;;;18.40;99.90;;;;;;5135192;27;20207;-57
2023/04/17 11:02:56;;;;;;;3.92;3.05;;;18.80;99.90;;;;;;5134952;27;20606;-57
2023/04/17 11:05:23;;;;;;;3.83;3.22;;;18.90;99.90;;;;;;5132810;27;20222;-58
2023/04/17 11:07:50;;;;;;;4.95;3.40;;;18.80;99.90;;;;;;5133910;27;20233;-58
2023/04/17 11:10:18;;;;;;;4.00;3.60;;;18.90;99.90;;;;;;5133455;27;20243;-58
2023/04/17 11:12:47;;;;;;;3.80;3.40;;;18.90;99.90;;;;;;5134217;27;20210;-58
2023/04/17 11:15:15;;;;;;;3.72;3.30;;;18.90;99.90;;;;;;5134986;27;20198;-59
2023/04/17 11:17:48;;;;;;;3.80;3.17;;;19.00;99.90;;;;;;5134803;27;20207;-59
2023/04/17 11:20:17;;;;;;;5.20;3.45;;;19.00;99.90;;;;;;5134339;27;20227;-59
2023/04/17 11:22:45;;;;;;;4.22;3.30;;;18.70;99.90;;;;;;5135190;27;20737;-59
2023/04/17 11:25:20;;;;;;;4.25;3.40;;;18.40;99.90;;;;;;5133995;27;20218;-58
2023/04/17 11:27:50;;;;;;;4.00;3.60;;;17.70;99.90;;;;;;5134501;27;20212;-60
2023/04/17 11:30:25;;;;;;;5.38;3.80;;;17.00;99.90;;;;;;5133876;27;20198;-58
2023/04/17 11:32:53;;;;;;;3.85;3.45;;;16.50;99.90;;;;;;5134140;27;20210;-58
2023/04/17 11:35:27;;;;;;;4.65;4.15;;;15.90;99.90;;;;;;5134102;27;20199;-62
2023/04/17 11:38:07;;;;;;;3.60;3.30;;;15.60;99.90;;;;;;5134819;27;20213;-60
2023/04/17 11:40:34;;;;;;;6.10;4.00;;;15.20;99.90;;;;;;5133164;27;20269;-60
2023/04/17 11:43:07;;;;;;;4.70;4.07;;;14.90;99.90;;;;;;5134111;27;20209;-58
2023/04/17 11:45:35;;;;;;;6.30;5.00;;;14.50;99.90;;;;;;5133317;27;20238;-59
2023/04/17 11:48:04;;;;;;;4.37;3.97;;;14.30;99.90;;;;;;5133073;27;20260;-58
2023/04/17 11:50:32;;;;;;;5.67;4.43;;;14.10;99.90;;;;;;5133463;27;20687;-59
2023/04/17 11:53:00;;;;;;;6.03;4.83;;;13.90;99.90;;;;;;5133202;27;20566;-61
2023/04/17 11:55:30;;;;;;;6.07;4.77;;;13.70;99.90;;;;;;5133374;27;20205;-59
2023/04/17 11:57:57;;;;;;;7.67;5.40;;;13.60;99.90;;;;;;5133067;27;20211;-60
2023/04/17 12:00:28;;;;;;;6.50;5.70;;;13.50;99.90;;;;;;5133183;27;20227;-59
2023/04/17 12:02:56;;;;;;;8.23;5.70;;;13.60;99.90;;;;;;5133710;27;20210;-61
2023/04/17 12:05:25;;;;;;;7.00;5.27;;;13.50;99.90;;;;;;5133835;27;20261;-61
2023/04/17 12:08:03;;;;;;;8.10;5.43;;;13.40;99.90;;;;;;5133540;27;20680;-59
2023/04/17 12:10:43;;;;;;;7.27;5.50;;;13.60;99.90;;;;;;5132424;27;20219;-58
2023/04/17 12:13:11;;;;;;;6.00;5.17;;;13.70;99.90;;;;;;5133070;27;20202;-59
2023/04/17 12:15:38;;;;;;;5.67;4.77;;;14.00;99.90;;;;;;5133049;27;20243;-63
2023/04/17 12:18:07;;;;;;;5.47;4.60;;;14.20;99.90;;;;;;5134808;27;20207;-62
2023/04/17 12:20:36;;;;;;;4.77;4.37;;;14.40;99.90;;;;;;5134437;27;20219;-61
2023/04/17 12:23:03;;;;;;;6.10;4.63;;;14.60;99.90;;;;;;5135116;27;20230;-63
2023/04/17 12:25:31;;;;;;;4.57;4.13;;;14.90;99.90;;;;;;5133767;27;20309;-59
2023/04/17 12:27:58;;;;;;;5.37;4.87;;;15.30;99.90;;;;;;5135191;27;20207;-63
2023/04/17 12:30:26;;;;;;;4.90;4.40;;;15.80;99.90;;;;;;5135006;27;20234;-58
2023/04/17 12:32:53;;;;;;;5.95;4.10;;;16.30;99.90;;;;;;5133457;27;20211;-58
2023/04/17 12:35:20;;;;;;;5.47;4.40;;;16.70;99.90;;;;;;5133371;27;20209;-59
2023/04/17 12:37:50;;;;;;;4.82;4.28;;;16.80;99.90;;;;;;5132989;27;20671;-58
2023/04/17 12:40:18;;;;;;;4.88;4.38;;;16.70;99.90;;;;;;5133411;27;20255;-59
2023/04/17 12:42:46;;;;;;;4.33;3.80;;;16.60;99.90;;;;;;5133417;27;20207;-58
2023/04/17 12:45:12;;;;;;;4.70;4.30;;;16.50;99.90;;;;;;5133587;27;20229;-58